Loris, SC (29569)

3:10 PM EDT on May 22, 2015 (GMT -0400)
HWY 9 BUS. WEST. | | Change Station
CLOSE
Current Station
Personal Weather Station
Location: Loris, SC
Elevation: 99 ft
Nearby Weather Stations

Elev 99 ft 34.07 °N, 78.91 °W | Updated 32 seconds ago

Mostly Cloudy
Mostly Cloudy
75.1 °F
Feels Like 78 °F
N
3.0
Wind Variable Wind from WNW
Gusts 4.0 mph

Today
High -- | Low -- °F
--% Chance of Precip.
Yesterday
High -- | Low -- °F
Precip. -- in
6:09 AM 8:15 PM
Waxing Crescent, 23% visible
Pressure 30.17 in
Visibility 7.0 miles
Clouds Scattered Clouds 6000 ft
Heat Index 78 °F
Dew Point 56 °F
Humidity 51%
Rainfall 0.00 in
Snow Depth Not available.
UV 9 out of 12
Pollen 8.00 out of 12
Air Quality Not available.
Flu Activity Local Activity
METAR KHYW 221855Z AUTO 00000KT 7SM SCT060 24/12 A3017 RMK AO2

More Conditions Fewer Conditions

Pressure 30.17 in
Visibility 7.0 miles
Clouds Scattered Clouds 6000 ft
Heat Index 78 °F
Dew Point 56 °F
Humidity 51%
Rainfall 0.00 in
Snow Depth Not available.
UV 9 out of 12
Pollen 8.00 out of 12
Air Quality Not available.
Flu Activity Local Activity
METAR KHYW 221855Z AUTO 00000KT 7SM SCT060 24/12 A3017 RMK AO2

More Conditions Fewer Conditions

10-Day Weather Forecast

Almanac

Astronomy

May. 22, 2015 Rise Set
Actual Time
Civil Twilight
Nautical Twilight
Astronomical Twilight
Moon
Length of Visible Light
Length of Day
Tomorrow will be .
, % of the Moon is Illuminated

Today's Extremes

State Highs State Lows

Community

WunderPhotos

Upload Photos

1,823,279 photos uploaded!

WunderBlogs® & News

Nearby

Air Quality

  Air Quality AQ Index Pollutant
Not available.

Snow Depth

Station Depth Elevation

Earthquake Activity

City Distance Mag. Time & Date
Minimum magnitude displayed is 2.5.

Coastal Water Temperatures

Place Temperature

Stations

Nearby Weather Stations

Station Location Temp. Windchill Dew Point Humidity Wind Precip. Elev Updated Type